createdAt,value
2023-02-11T00:00:07.635Z,2.45
2023-02-11T00:04:29.390Z,2.43
2023-02-11T00:08:31.335Z,2.39
2023-02-11T00:12:35.425Z,2.38
2023-02-11T00:16:37.219Z,2.33
2023-02-11T00:20:39.447Z,2.27
2023-02-11T00:24:41.911Z,2.28
2023-02-11T00:28:44.586Z,2.32
2023-02-11T00:32:47.596Z,2.33
2023-02-11T00:36:50.134Z,2.30
2023-02-11T00:40:51.992Z,2.29
2023-02-11T00:44:53.711Z,2.27
2023-02-11T00:48:57.435Z,2.23
2023-02-11T00:52:59.262Z,2.23
2023-02-11T00:57:01.190Z,2.24
2023-02-11T01:01:04.580Z,2.23
2023-02-11T01:05:06.961Z,2.22
2023-02-11T01:09:08.874Z,2.18
2023-02-11T01:13:10.860Z,2.19
2023-02-11T01:17:12.785Z,2.19
2023-02-11T01:21:14.674Z,2.22
2023-02-11T01:25:16.616Z,2.30
2023-02-11T01:29:18.542Z,2.30
2023-02-11T01:33:22.234Z,2.33
2023-02-11T01:37:24.257Z,2.39
2023-02-11T01:41:26.031Z,2.44
2023-02-11T01:45:47.010Z,2.48
2023-02-11T01:49:56.495Z,2.49
2023-02-11T01:54:17.893Z,2.57
2023-02-11T01:58:20.424Z,2.77
2023-02-11T02:02:30.376Z,2.99
2023-02-11T02:06:40.441Z,3.15
2023-02-11T02:10:46.503Z,3.23
2023-02-11T02:14:48.281Z,3.33
2023-02-11T02:19:25.311Z,3.38
2023-02-11T02:24:04.532Z,3.41
2023-02-11T02:28:25.308Z,3.43
2023-02-11T02:32:30.850Z,3.50
2023-02-11T02:37:10.551Z,3.50
2023-02-11T02:41:16.479Z,3.44
2023-02-11T02:45:19.160Z,3.46
2023-02-11T02:49:20.966Z,3.48
2023-02-11T02:53:54.555Z,3.53
2023-02-11T02:58:25.152Z,3.56
2023-02-11T03:02:31.436Z,3.58
2023-02-11T03:07:00.525Z,3.65
2023-02-11T03:11:05.287Z,3.75
2023-02-11T03:15:08.331Z,3.81
2023-02-11T03:19:34.400Z,3.86
2023-02-11T03:23:40.918Z,3.92
2023-02-11T03:27:52.526Z,3.99
2023-02-11T03:32:15.883Z,4.04
2023-02-11T03:36:27.416Z,4.06
2023-02-11T03:40:34.770Z,4.11
2023-02-11T03:44:42.494Z,4.14
2023-02-11T03:48:50.052Z,4.17
2023-02-11T03:52:53.601Z,4.22
2023-02-11T03:56:58.209Z,4.25
2023-02-11T04:01:02.586Z,4.27
2023-02-11T04:05:06.822Z,4.32
2023-02-11T04:09:17.031Z,4.46
2023-02-11T04:13:19.883Z,4.51
2023-02-11T04:17:24.716Z,4.54
2023-02-11T04:21:26.633Z,4.58
2023-02-11T04:25:28.701Z,4.53
2023-02-11T04:29:31.555Z,4.51
2023-02-11T04:33:35.563Z,4.52
2023-02-11T04:37:37.453Z,4.55
2023-02-11T04:41:39.262Z,4.62
2023-02-11T04:45:41.238Z,4.65
2023-02-11T04:49:43.552Z,4.64
2023-02-11T04:53:46.431Z,4.66
2023-02-11T04:57:52.145Z,4.68
2023-02-11T05:01:54.041Z,4.68
2023-02-11T05:05:56.310Z,4.70
2023-02-11T05:09:58.441Z,4.74
2023-02-11T05:14:01.194Z,4.79
2023-02-11T05:18:03.156Z,4.80
2023-02-11T05:22:05.135Z,4.85
2023-02-11T05:26:09.564Z,4.85
2023-02-11T05:30:11.964Z,4.89
2023-02-11T05:34:13.792Z,4.87
2023-02-11T05:38:16.952Z,4.89
2023-02-11T05:42:18.760Z,4.91
2023-02-11T05:46:20.664Z,4.93
2023-02-11T05:50:22.662Z,4.93
2023-02-11T05:54:24.449Z,4.90
2023-02-11T05:58:26.266Z,4.91
2023-02-11T06:02:28.041Z,4.91
2023-02-11T06:06:30.082Z,4.94
2023-02-11T06:10:31.936Z,4.93
2023-02-11T06:14:33.851Z,4.93
2023-02-11T06:18:35.678Z,4.89
2023-02-11T06:22:37.973Z,4.89
2023-02-11T06:26:40.138Z,4.91
2023-02-11T06:30:42.356Z,4.87
2023-02-11T06:34:45.943Z,4.89
2023-02-11T06:38:49.033Z,4.89
2023-02-11T06:42:51.174Z,4.87
2023-02-11T06:46:53.227Z,4.91
2023-02-11T06:50:55.246Z,4.93
2023-02-11T06:54:57.450Z,4.94
2023-02-11T06:59:01.993Z,4.94
2023-02-11T07:03:06.904Z,4.95
2023-02-11T07:07:09.119Z,4.99
2023-02-11T07:11:20.879Z,5.02
2023-02-11T07:15:22.700Z,5.00
2023-02-11T07:19:24.569Z,5.03
2023-02-11T07:23:26.405Z,5.07
2023-02-11T07:27:28.277Z,5.14
2023-02-11T07:31:31.183Z,5.16
2023-02-11T07:35:33.299Z,5.26
2023-02-11T07:39:35.692Z,5.28
2023-02-11T07:43:39.358Z,5.30
2023-02-11T07:47:42.666Z,5.36
2023-02-11T07:51:45.481Z,5.37
2023-02-11T07:55:47.392Z,5.43
2023-02-11T07:59:58.256Z,5.49
2023-02-11T08:04:02.287Z,5.48
2023-02-11T08:08:04.398Z,5.48
2023-02-11T08:12:07.636Z,5.50
2023-02-11T08:16:23.898Z,5.51
2023-02-11T08:20:26.078Z,5.60
2023-02-11T08:24:28.919Z,5.55
2023-02-11T08:28:31.982Z,5.52
2023-02-11T08:56:59.792Z,5.81
2023-02-11T09:01:12.907Z,5.91
2023-02-11T09:05:15.540Z,6.03
2023-02-11T09:09:17.818Z,6.07
2023-02-11T09:13:43.734Z,6.20
2023-02-11T09:17:47.944Z,6.33
2023-02-11T09:21:51.014Z,6.50
2023-02-11T09:25:53.049Z,6.62
2023-02-11T09:29:55.882Z,6.70
2023-02-11T09:34:01.451Z,6.78
2023-02-11T09:38:03.390Z,6.76
2023-02-11T09:42:19.902Z,6.79
2023-02-11T09:46:39.621Z,6.83
2023-02-11T09:50:46.729Z,6.94
2023-02-11T09:55:09.278Z,6.99
2023-02-11T09:59:16.975Z,7.03
2023-02-11T10:03:39.101Z,6.82
2023-02-11T10:08:22.860Z,6.93
2023-02-11T10:13:01.480Z,7.02
2023-02-11T10:17:16.553Z,7.06
2023-02-11T10:27:01.486Z,6.91
2023-02-11T10:31:42.893Z,6.95
2023-02-11T10:35:46.740Z,6.91
2023-02-11T10:39:50.525Z,6.85
2023-02-11T10:43:52.522Z,6.76
2023-02-11T10:47:54.608Z,6.71
2023-02-11T10:52:18.210Z,6.66
2023-02-11T10:56:27.177Z,6.64
2023-02-11T11:00:56.458Z,6.56
2023-02-11T11:05:03.425Z,6.61
2023-02-11T11:09:05.070Z,6.61
2023-02-11T11:13:58.552Z,6.70
2023-02-11T11:18:22.855Z,6.76
2023-02-11T11:22:24.966Z,6.91
2023-02-11T11:27:02.382Z,7.11
2023-02-11T11:31:05.374Z,7.35
2023-02-11T11:35:28.955Z,7.51
2023-02-11T11:39:34.228Z,7.54
2023-02-11T11:43:38.415Z,7.56
2023-02-11T11:48:47.808Z,7.54
2023-02-11T11:53:16.156Z,7.47
2023-02-11T11:57:22.863Z,7.42
2023-02-11T12:01:54.830Z,7.33
2023-02-11T12:06:29.647Z,7.35
2023-02-11T12:11:18.949Z,7.26
2023-02-11T12:15:41.182Z,7.23
2023-02-11T12:19:50.379Z,7.37
2023-02-11T12:23:55.733Z,7.39
2023-02-11T12:28:07.135Z,7.44
2023-02-11T12:32:31.513Z,7.49
2023-02-11T12:36:53.883Z,7.42
2023-02-11T12:41:04.383Z,7.28
2023-02-11T12:45:26.066Z,7.13
2023-02-11T12:49:49.938Z,7.14
2023-02-11T12:54:10.717Z,7.07
2023-02-11T12:58:45.815Z,7.16
2023-02-11T13:03:14.270Z,7.22
2023-02-11T13:07:30.647Z,7.23
2023-02-11T13:11:39.994Z,7.27
2023-02-11T13:16:05.272Z,7.21
2023-02-11T13:20:30.258Z,7.17
2023-02-11T13:25:03.229Z,7.27
2023-02-11T13:29:16.491Z,7.34
2023-02-11T13:33:50.608Z,7.23
2023-02-11T13:37:55.822Z,7.16
2023-02-11T13:42:04.367Z,7.10
2023-02-11T13:46:09.931Z,7.08
2023-02-11T13:50:46.791Z,6.97
2023-02-11T13:54:52.799Z,7.03
2023-02-11T13:58:54.830Z,7.02
2023-02-11T14:03:31.380Z,7.06
2023-02-11T14:12:36.473Z,7.03
2023-02-11T14:17:18.548Z,7.03
2023-02-11T14:26:25.621Z,6.90
2023-02-11T14:30:38.758Z,6.88
2023-02-11T14:35:06.043Z,6.82
2023-02-11T14:39:41.252Z,6.80
2023-02-11T14:43:56.219Z,6.77
2023-02-11T14:48:07.730Z,6.71
2023-02-11T14:52:36.289Z,6.77
2023-02-11T14:56:44.466Z,6.78
2023-02-11T15:00:59.987Z,6.70
2023-02-11T15:05:15.949Z,6.68
2023-02-11T15:09:44.183Z,6.58
2023-02-11T15:13:51.728Z,6.46
2023-02-11T15:17:59.024Z,6.37
2023-02-11T15:22:04.833Z,6.30
2023-02-11T15:26:14.042Z,6.24
2023-02-11T15:30:22.261Z,6.21
2023-02-11T15:34:24.233Z,6.27
2023-02-11T15:38:29.295Z,6.29
2023-02-11T15:42:40.970Z,6.27
2023-02-11T15:46:46.906Z,6.24
2023-02-11T15:50:58.532Z,6.16
2023-02-11T15:59:56.077Z,6.01
2023-02-11T16:04:01.368Z,5.97
2023-02-11T16:08:29.468Z,6.04
2023-02-11T16:12:31.621Z,6.09
2023-02-11T16:16:34.740Z,6.12
2023-02-11T16:20:37.961Z,6.21
2023-02-11T16:25:20.220Z,6.25
2023-02-11T16:29:32.413Z,6.25
2023-02-11T16:33:42.431Z,6.27
2023-02-11T16:37:45.199Z,6.26
2023-02-11T16:41:53.761Z,6.31
2023-02-11T17:03:39.559Z,6.17
2023-02-11T17:07:56.381Z,6.22
2023-02-11T17:12:35.045Z,6.26
2023-02-11T17:16:39.930Z,6.19
2023-02-11T17:20:42.180Z,6.14
2023-02-11T17:24:44.305Z,6.15
2023-02-11T17:28:47.710Z,6.25
2023-02-11T17:32:50.673Z,6.27
2023-02-11T17:36:52.640Z,6.35
2023-02-11T17:40:59.326Z,6.42
2023-02-11T17:45:01.217Z,6.41
2023-02-11T17:49:03.496Z,6.36
2023-02-11T17:53:06.597Z,6.37
2023-02-11T17:57:10.383Z,6.27
2023-02-11T18:01:12.881Z,6.16
2023-02-11T18:05:14.856Z,6.15
2023-02-11T18:09:16.885Z,6.12
2023-02-11T18:13:19.231Z,6.15
2023-02-11T18:17:22.012Z,6.23
2023-02-11T18:21:24.428Z,6.23
2023-02-11T18:25:26.290Z,6.15
2023-02-11T18:29:29.195Z,6.13
2023-02-11T18:33:31.548Z,6.07
2023-02-11T18:37:33.307Z,6.05
2023-02-11T18:41:35.494Z,6.07
2023-02-11T18:45:37.503Z,6.08
2023-02-11T18:49:39.448Z,6.05
2023-02-11T18:53:42.148Z,5.96
2023-02-11T18:57:44.734Z,6.00
2023-02-11T19:01:47.478Z,6.06
2023-02-11T19:05:51.704Z,6.09
2023-02-11T19:09:55.428Z,6.08
2023-02-11T19:13:58.030Z,6.04
2023-02-11T19:17:59.784Z,6.05
2023-02-11T19:22:07.272Z,6.12
2023-02-11T19:26:10.300Z,6.09
2023-02-11T19:30:12.406Z,6.09
2023-02-11T19:34:15.775Z,6.09
2023-02-11T19:38:25.205Z,6.17
2023-02-11T19:42:40.141Z,6.26
2023-02-11T19:47:10.992Z,6.25
2023-02-11T19:51:25.130Z,6.20
2023-02-11T19:55:32.664Z,6.14
2023-02-11T19:59:54.074Z,6.12
2023-02-11T20:04:04.436Z,6.23
2023-02-11T20:08:21.086Z,6.29
2023-02-11T20:12:24.269Z,6.37
2023-02-11T20:16:46.801Z,6.42
2023-02-11T20:20:55.087Z,6.59
2023-02-11T20:24:59.678Z,6.61
2023-02-11T20:29:08.791Z,6.65
2023-02-11T20:33:18.750Z,6.67
2023-02-11T20:37:21.946Z,6.68
2023-02-11T20:41:27.991Z,6.71
2023-02-11T20:45:33.707Z,6.70
2023-02-11T20:49:46.550Z,6.68
2023-02-11T20:53:51.715Z,6.64
2023-02-11T20:58:00.730Z,6.61
2023-02-11T21:02:08.314Z,6.63
2023-02-11T21:06:20.636Z,6.66
2023-02-11T21:10:32.401Z,6.65
2023-02-11T21:14:37.332Z,6.52
2023-02-11T21:18:51.125Z,6.45
2023-02-11T21:22:57.598Z,6.42
2023-02-11T21:26:59.474Z,6.38
2023-02-11T21:31:03.263Z,6.37
2023-02-11T21:35:06.039Z,6.39
2023-02-11T21:39:08.477Z,6.40
2023-02-11T21:43:10.355Z,6.42
2023-02-11T21:47:12.908Z,6.43
2023-02-11T21:51:17.733Z,6.42
2023-02-11T21:55:20.225Z,6.45
2023-02-11T21:59:22.033Z,6.40
2023-02-11T22:03:23.994Z,6.47
2023-02-11T22:07:27.510Z,6.47
2023-02-11T22:11:29.748Z,6.34
2023-02-11T22:15:31.621Z,6.32
2023-02-11T22:19:34.413Z,6.28
2023-02-11T22:23:37.791Z,6.24
2023-02-11T22:27:39.736Z,6.30
2023-02-11T22:31:42.010Z,6.29
2023-02-11T22:35:43.976Z,6.30
2023-02-11T22:39:46.219Z,6.29
2023-02-11T22:43:48.255Z,6.33
2023-02-11T22:47:50.335Z,6.33
2023-02-11T22:51:52.766Z,6.34
2023-02-11T22:55:54.824Z,6.41
2023-02-11T22:59:56.926Z,6.44
2023-02-11T23:04:00.397Z,6.46
2023-02-11T23:08:02.316Z,6.53
2023-02-11T23:12:04.942Z,6.54
2023-02-11T23:16:10.486Z,6.57
2023-02-11T23:20:13.002Z,6.53
2023-02-11T23:24:15.498Z,6.48
2023-02-11T23:28:17.519Z,6.35
2023-02-11T23:32:20.433Z,6.32
2023-02-11T23:36:23.260Z,6.28
2023-02-11T23:40:25.180Z,6.23
2023-02-11T23:44:27.920Z,6.22
2023-02-11T23:48:30.754Z,6.23
2023-02-11T23:52:32.841Z,6.15
2023-02-11T23:56:36.470Z,6.20
